Main page
METAR-TAF:

METAR-TAF

Airports :

Leoš Janáček Airport Ostrava

Ostrava, Czech Republic

latitude: 49-41N, longitude: 018-07E, elevation: 256 m

Current weather observation

The report was made 36 minutes ago, at 13:00 UTC
Wind 14 kt from the South
Temperature 6°C
Humidity 52%
Pressure 1006 hPa
Visibility 10 km or more
Overcast at a height of 3900 ft

METAR: LKMT 291300Z 19014KT 9999 OVC039 06/M03 Q1006 NOSIG

Time: 14:36 (13:36 UTC)

Forecast

The report was made 2 hours and 36 minutes ago, at 11:00 UTC
Forecast valid from 29 at 12 UTC to 01 at 18 UTC
Wind 14 kt from the Southwest
Visibility 10 km or more
Scattered clouds at a height of 3600 ft
Temporary
from 29 at 12 UTC to 01 at 18 UTC
Wind 18 kt from the Southwest with gusts up to 30 kt
Broken clouds at a height of 3600 ft
Probability 30% :
Temporary
from 29 at 12 UTC to 29 at 16 UTC
Broken clouds at a height of 2000 ft
rain

TAF: LKMT 291100Z 2912/0118 22014KT 9999 SCT036 TEMPO 2912/0118 23018G30KT BKN036 PROB30 TEMPO 2912/2916 RA BKN020

Weather observations and forecasts of more than 4000 airports (METAR and TAF reports).

The available stations are represented by yellow and red dots on the map.

Hover mouse over dot to see the name of the station.

Then click to see weather observations and forecasts.

To change the map : click on the green buttons with a black cross to zoom in, on the green button with a dash to zoom out, or on the green arrows for adjacent maps.


METAR-TAF: